Time;durP1;ratioP1;P1;durP2;ratioP2;P2;SDS_P1;SDS_P2;PMS_P1;PMS_P2;Temp;Humidity;BMP_temperature;BMP_pressure;BME280_temperature;BME280_humidity;BME280_pressure;Samples;Min_cycle;Max_cycle;Signal;HPM_P1;HPM_P2
2021/07/10 00:01:26;;;;;;;18.17;16.60;;;20.30;96.80;;;;;;5002120;28;20655;-92
2021/07/10 00:03:56;;;;;;;19.27;17.20;;;19.90;94.00;;;;;;5022132;28;20169;-93
2021/07/10 00:06:24;;;;;;;19.80;17.90;;;18.70;95.90;;;;;;5000875;28;20428;-92
2021/07/10 00:09:10;;;;;;;19.40;17.30;;;19.80;96.70;;;;;;5001419;28;20461;-91
2021/07/10 00:11:37;;;;;;;19.63;18.03;;;17.40;93.30;;;;;;5005285;28;20404;-92
2021/07/10 00:14:15;;;;;;;19.10;17.50;;;17.90;96.50;;;;;;5003656;28;20473;-93
2021/07/10 00:16:56;;;;;;;;;;;;;;;;;;;;;
2021/07/10 00:19:24;;;;;;;19.20;17.40;;;21.30;97.40;;;;;;5033345;28;20462;-91
2021/07/10 00:22:08;;;;;;;20.33;18.53;;;20.50;98.40;;;;;;5016408;28;20446;-90
2021/07/10 00:24:45;;;;;;;19.47;17.77;;;15.90;92.30;;;;;;5016443;28;20403;-90
2021/07/10 00:27:49;;;;;;;20.47;18.60;;;17.20;95.30;;;;;;5010883;28;20423;-91
2021/07/10 00:30:34;;;;;;;;;;;;;;;;;;;;;
2021/07/10 00:33:30;;;;;;;21.70;19.70;;;17.70;95.20;;;;;;5023481;28;20487;-92
2021/07/10 00:36:22;;;;;;;20.10;18.10;;;16.60;95.20;;;;;;5003339;28;20489;-92
2021/07/10 00:39:03;;;;;;;;;;;;;;;;;;;;;
2021/07/10 00:45:36;;;;;;;20.50;18.40;;;17.00;95.40;;;;;;5017870;28;20411;-92
2021/07/10 00:48:25;;;;;;;21.10;19.07;;;19.90;96.90;;;;;;5004856;28;20485;-92
2021/07/10 00:51:01;;;;;;;22.50;20.20;;;16.90;96.00;;;;;;5008753;28;20448;-92
2021/07/10 00:53:38;;;;;;;20.33;18.63;;;16.90;98.70;;;;;;5010333;28;20530;-92
2021/07/10 01:00:19;;;;;;;22.80;20.50;;;19.30;96.40;;;;;;4952180;28;20428;-92
2021/07/10 01:02:48;;;;;;;21.10;19.10;;;17.80;97.90;;;;;;5002574;28;20481;-92
2021/07/10 01:05:17;;;;;;;22.07;19.87;;;18.20;97.10;;;;;;5000733;28;20477;-92
2021/07/10 01:07:43;;;;;;;21.83;19.60;;;19.70;97.90;;;;;;5001220;28;20423;-93
2021/07/10 01:10:13;;;;;;;21.07;19.17;;;17.70;98.80;;;;;;5002341;28;21088;-93
2021/07/10 01:12:40;;;;;;;22.67;20.27;;;16.70;96.10;;;;;;5002710;28;20469;-93
2021/07/10 01:15:11;;;;;;;21.00;19.10;;;18.90;98.40;;;;;;5002488;28;20467;-92
2021/07/10 01:17:37;;;;;;;22.73;20.63;;;16.40;97.10;;;;;;5002175;28;20507;-92
2021/07/10 01:20:21;;;;;;;22.73;20.80;;;15.30;96.50;;;;;;5005003;28;20423;-93
2021/07/10 01:22:48;;;;;;;21.93;19.73;;;16.50;95.80;;;;;;5005036;28;20438;-92
2021/07/10 01:25:28;;;;;;;23.30;21.03;;;18.10;98.20;;;;;;5004230;28;20443;-92
2021/07/10 01:27:56;;;;;;;23.50;21.27;;;15.10;96.70;;;;;;5005488;28;20446;-93
2021/07/10 01:30:25;;;;;;;24.13;21.67;;;18.40;98.60;;;;;;5005763;28;20477;-93
2021/07/10 01:33:13;;;;;;;22.73;20.47;;;17.60;99.90;;;;;;5004796;28;20423;-92
2021/07/10 01:35:39;;;;;;;20.93;18.90;;;16.40;96.70;;;;;;5003814;28;20844;-92
2021/07/10 01:38:07;;;;;;;23.47;21.03;;;19.00;98.60;;;;;;5003599;28;20455;-92
2021/07/10 01:40:35;;;;;;;23.37;21.03;;;15.60;95.80;;;;;;5005320;28;20455;-92
2021/07/10 01:43:03;;;;;;;21.77;19.83;;;20.40;98.60;;;;;;5003095;28;20939;-91
2021/07/10 01:45:30;;;;;;;23.23;20.90;;;15.40;97.50;;;;;;5003241;28;20481;-93
2021/07/10 01:47:56;;;;;;;22.07;19.83;;;18.90;97.30;;;;;;5006236;28;20490;-92
2021/07/10 01:50:23;;;;;;;22.47;20.23;;;18.30;98.50;;;;;;5002702;28;20478;-92
2021/07/10 01:52:49;;;;;;;22.00;19.70;;;19.40;99.00;;;;;;5003081;28;20412;-92
2021/07/10 01:55:16;;;;;;;23.20;20.90;;;15.40;98.40;;;;;;5001936;28;20412;-92
2021/07/10 01:57:43;;;;;;;22.47;20.40;;;16.20;96.80;;;;;;4999113;28;20796;-92
2021/07/10 02:00:11;;;;;;;22.37;20.27;;;21.50;99.30;;;;;;5002304;28;20427;-93
2021/07/10 02:02:37;;;;;;;26.40;23.70;;;16.30;96.30;;;;;;5003084;28;20422;-92
2021/07/10 02:05:04;;;;;;;24.40;21.60;;;19.10;97.30;;;;;;5004647;28;20419;-92
2021/07/10 02:07:29;;;;;;;25.17;22.77;;;16.10;96.30;;;;;;5024123;28;20403;-92
2021/07/10 02:09:55;;;;;;;23.23;21.07;;;18.90;99.40;;;;;;5003603;28;20839;-92
2021/07/10 02:12:20;;;;;;;25.93;21.37;;;15.30;97.70;;;;;;5004331;28;20168;-93
2021/07/10 02:14:46;;;;;;;22.13;20.23;;;17.80;99.90;;;;;;5004889;28;20707;-92
2021/07/10 02:17:12;;;;;;;24.60;22.00;;;15.50;97.20;;;;;;5004267;28;20263;-92
2021/07/10 02:19:38;;;;;;;26.33;23.63;;;17.70;98.70;;;;;;5004435;28;20177;-93
2021/07/10 02:22:08;;;;;;;25.10;22.77;;;20.30;99.90;;;;;;5004719;28;20180;-92
2021/07/10 02:24:38;;;;;;;23.87;21.53;;;14.80;96.00;;;;;;5006869;28;20427;-93
2021/07/10 02:27:03;;;;;;;25.77;23.27;;;16.80;98.20;;;;;;5005642;28;20408;-92
2021/07/10 02:29:29;;;;;;;25.70;23.10;;;15.70;99.60;;;;;;5006552;28;21136;-91
2021/07/10 02:31:55;;;;;;;32.50;24.10;;;16.20;99.90;;;;;;5006700;28;20189;-92
2021/07/10 02:34:21;;;;;;;25.70;23.20;;;17.80;99.90;;;;;;5006531;28;20423;-92
2021/07/10 02:36:47;;;;;;;31.30;25.50;;;17.70;99.90;;;;;;5006260;28;20667;-92
2021/07/10 02:39:13;;;;;;;25.07;22.43;;;17.40;99.90;;;;;;5006536;28;20192;-92
2021/07/10 02:41:38;;;;;;;28.43;23.17;;;18.40;99.90;;;;;;5006263;28;20256;-93
2021/07/10 02:44:05;;;;;;;26.23;23.63;;;18.00;99.90;;;;;;5004332;28;20423;-93
2021/07/10 02:46:32;;;;;;;25.87;23.17;;;17.00;99.00;;;;;;5004306;28;20225;-93
2021/07/10 02:48:58;;;;;;;27.00;24.10;;;17.40;99.50;;;;;;5003260;28;20530;-92
2021/07/10 02:51:27;;;;;;;27.57;24.60;;;19.90;99.90;;;;;;5006305;28;20945;-93
2021/07/10 02:53:54;;;;;;;29.40;24.30;;;17.50;99.50;;;;;;5006926;28;20423;-93
2021/07/10 02:56:21;;;;;;;28.53;25.60;;;18.80;99.60;;;;;;5006573;28;20424;-93
2021/07/10 02:58:47;;;;;;;29.27;25.30;;;14.00;96.90;;;;;;5006379;28;20934;-92
2021/07/10 03:01:14;;;;;;;26.87;23.97;;;18.30;99.90;;;;;;5007302;28;20411;-92
2021/07/10 03:03:39;;;;;;;29.63;24.57;;;17.70;99.70;;;;;;5009069;28;20473;-93
2021/07/10 03:06:05;;;;;;;32.70;24.77;;;17.40;99.90;;;;;;5008879;28;20483;-93
2021/07/10 03:08:31;;;;;;;29.00;25.90;;;15.30;99.50;;;;;;5008873;28;20179;-93
2021/07/10 03:10:57;;;;;;;27.80;24.60;;;16.70;99.90;;;;;;5005427;28;20766;-93
2021/07/10 03:13:22;;;;;;;26.00;23.40;;;18.00;99.90;;;;;;5025085;28;20199;-93
2021/07/10 03:15:49;;;;;;;28.03;23.03;;;14.90;99.90;;;;;;5006348;28;20180;-93
2021/07/10 03:18:16;;;;;;;27.53;24.83;;;17.30;99.90;;;;;;5005581;28;20195;-94
2021/07/10 03:20:42;;;;;;;27.63;24.80;;;15.80;99.90;;;;;;5006404;28;20915;-93
2021/07/10 03:23:08;;;;;;;28.47;22.77;;;14.10;99.20;;;;;;5022892;28;20948;-93
2021/07/10 03:25:34;;;;;;;29.30;24.60;;;17.10;99.90;;;;;;5024123;28;20408;-93
2021/07/10 03:28:00;;;;;;;28.43;24.90;;;16.10;99.90;;;;;;5008077;28;20453;-93
2021/07/10 03:30:29;;;;;;;25.40;22.83;;;15.70;99.70;;;;;;5008673;28;20475;-92
2021/07/10 03:32:58;;;;;;;23.97;21.60;;;15.20;99.30;;;;;;5010104;28;20420;-92
2021/07/10 03:35:24;;;;;;;26.90;22.23;;;16.20;99.60;;;;;;5008558;28;20435;-93
2021/07/10 03:37:51;;;;;;;24.80;22.30;;;16.80;99.90;;;;;;5008620;28;20420;-93
2021/07/10 03:40:22;;;;;;;24.93;22.13;;;15.70;99.60;;;;;;5007717;28;20204;-92
2021/07/10 03:42:48;;;;;;;26.83;24.03;;;17.40;99.90;;;;;;5006223;28;20412;-93
2021/07/10 03:45:15;;;;;;;25.70;22.90;;;16.20;99.90;;;;;;5023317;28;20423;-94
2021/07/10 03:47:42;;;;;;;25.97;23.27;;;18.10;99.90;;;;;;4965677;28;1124893;-93
2021/07/10 03:50:10;;;;;;;24.57;21.97;;;16.70;99.90;;;;;;5006411;28;20482;-92
2021/07/10 03:52:37;;;;;;;26.40;23.60;;;15.20;99.00;;;;;;5025222;28;20399;-93
2021/07/10 03:55:08;;;;;;;23.73;21.23;;;14.90;99.80;;;;;;5008146;28;20487;-93
2021/07/10 03:57:35;;;;;;;25.90;23.10;;;14.20;97.10;;;;;;5009894;28;20412;-92
2021/07/10 04:00:03;;;;;;;23.80;21.40;;;17.80;99.90;;;;;;5026403;28;20430;-93
2021/07/10 04:02:29;;;;;;;25.13;21.33;;;15.20;99.00;;;;;;5008760;28;20412;-93
2021/07/10 04:04:55;;;;;;;23.90;21.23;;;17.80;99.90;;;;;;5008096;28;20962;-93
2021/07/10 04:07:21;;;;;;;26.90;22.73;;;;;;;;;;5025734;28;20200;-93
2021/07/10 04:09:46;;;;;;;26.00;21.73;;;15.30;97.40;;;;;;5007823;28;20247;-92
2021/07/10 04:12:12;;;;;;;25.47;22.87;;;15.60;99.30;;;;;;5007312;28;20477;-93
2021/07/10 04:14:38;;;;;;;24.33;21.70;;;15.30;99.90;;;;;;5008936;28;20204;-93
2021/07/10 04:17:07;;;;;;;24.90;22.40;;;18.10;99.90;;;;;;5013530;28;20168;-91
2021/07/10 04:19:34;;;;;;;25.23;22.60;;;17.20;99.40;;;;;;5014348;28;20172;-92
2021/07/10 04:22:00;;;;;;;24.87;22.33;;;15.40;99.60;;;;;;5009037;28;20408;-92
2021/07/10 04:24:26;;;;;;;25.87;23.30;;;16.20;99.90;;;;;;5011546;28;20458;-93
2021/07/10 04:26:54;;;;;;;26.77;23.97;;;17.20;99.90;;;;;;5009638;28;20187;-92
2021/07/10 04:29:20;;;;;;;24.63;22.13;;;16.20;99.20;;;;;;5008793;28;20576;-92
2021/07/10 04:31:45;;;;;;;24.80;22.43;;;19.60;99.90;;;;;;5009587;28;20423;-92
2021/07/10 04:34:13;;;;;;;24.60;22.20;;;17.00;99.90;;;;;;5008314;28;20240;-92
2021/07/10 04:36:39;;;;;;;23.53;21.03;;;15.50;99.90;;;;;;5025718;28;20169;-92
2021/07/10 04:39:05;;;;;;;22.13;19.77;;;16.80;99.90;;;;;;5007695;28;20466;-92
2021/07/10 04:41:31;;;;;;;24.20;21.80;;;17.50;99.90;;;;;;5008013;28;20191;-92
2021/07/10 04:43:57;;;;;;;23.93;21.10;;;20.00;99.90;;;;;;5008804;28;20177;-93
2021/07/10 04:46:26;;;;;;;23.40;21.10;;;16.60;99.90;;;;;;5026594;28;20232;-92
2021/07/10 04:48:52;;;;;;;24.20;20.07;;;16.70;96.70;;;;;;5008256;28;20695;-93
2021/07/10 04:51:21;;;;;;;22.70;20.60;;;17.10;99.90;;;;;;5024502;28;20451;-93
2021/07/10 04:53:49;;;;;;;22.97;20.67;;;14.90;99.10;;;;;;5008118;28;20426;-93
2021/07/10 04:56:18;;;;;;;21.80;19.40;;;18.00;95.30;;;;;;5006630;28;20427;-92
2021/07/10 04:58:45;;;;;;;20.87;18.80;;;17.70;96.20;;;;;;5025170;28;20439;-93
2021/07/10 05:01:15;;;;;;;20.07;18.17;;;16.10;93.40;;;;;;5007028;28;20423;-92
2021/07/10 05:03:43;;;;;;;20.37;18.60;;;18.40;94.90;;;;;;5007746;28;20404;-92
2021/07/10 05:06:10;;;;;;;20.10;18.20;;;21.20;93.30;;;;;;5008234;28;20416;-92
2021/07/10 05:08:36;;;;;;;17.67;16.07;;;18.60;90.20;;;;;;5007419;28;20941;-94
2021/07/10 05:11:02;;;;;;;18.43;16.93;;;18.00;88.20;;;;;;5005680;28;20439;-91
2021/07/10 05:13:32;;;;;;;19.10;17.20;;;19.10;85.80;;;;;;5008896;28;20426;-94
2021/07/10 05:15:58;;;;;;;17.93;16.53;;;19.50;82.60;;;;;;5005036;28;20561;-93
2021/07/10 05:18:24;;;;;;;20.07;18.27;;;18.00;87.10;;;;;;5006143;28;20439;-94
2021/07/10 05:20:50;;;;;;;18.50;16.90;;;18.90;87.10;;;;;;5007661;28;20656;-94
2021/07/10 05:23:15;;;;;;;19.33;17.70;;;19.60;84.50;;;;;;5009053;28;20184;-93
2021/07/10 05:25:41;;;;;;;20.87;18.37;;;19.70;83.00;;;;;;5009098;28;20232;-93
2021/07/10 05:28:07;;;;;;;18.60;16.90;;;19.40;82.50;;;;;;5029983;28;20179;-92
2021/07/10 05:30:33;;;;;;;18.57;16.97;;;20.80;86.40;;;;;;5015489;28;20224;-93
2021/07/10 05:33:00;;;;;;;18.20;16.50;;;20.30;81.50;;;;;;5009259;28;20624;-93
2021/07/10 05:35:27;;;;;;;18.30;16.40;;;17.70;70.10;;;;;;5012649;28;20181;-93
2021/07/10 05:37:53;;;;;;;17.50;16.00;;;20.70;76.90;;;;;;5012201;28;20425;-93
2021/07/10 05:40:19;;;;;;;19.90;18.17;;;21.20;73.40;;;;;;5012259;28;20450;-94
2021/07/10 05:42:50;;;;;;;17.57;16.20;;;21.60;68.50;;;;;;5013921;28;20425;-93
2021/07/10 05:45:18;;;;;;;16.73;15.43;;;21.60;66.60;;;;;;4997664;28;20426;-93
2021/07/10 05:47:44;;;;;;;18.43;16.87;;;24.50;68.40;;;;;;5010495;28;20550;-94
2021/07/10 05:50:13;;;;;;;19.13;17.63;;;23.60;71.10;;;;;;5009448;28;20473;-93
2021/07/10 05:52:40;;;;;;;18.50;16.90;;;22.10;61.40;;;;;;5008643;28;20498;-93
2021/07/10 05:55:07;;;;;;;17.37;15.87;;;23.60;66.60;;;;;;5028794;28;20423;-92
2021/07/10 05:57:33;;;;;;;17.50;16.13;;;22.20;66.60;;;;;;5011366;28;20509;-92
2021/07/10 06:00:04;;;;;;;19.70;17.80;;;22.40;69.20;;;;;;5011421;28;20514;-92
2021/07/10 06:02:33;;;;;;;18.83;17.10;;;22.10;69.40;;;;;;5013675;28;20419;-92
2021/07/10 06:05:01;;;;;;;17.17;15.70;;;21.30;70.70;;;;;;5015875;28;20435;-93
2021/07/10 06:07:27;;;;;;;20.63;17.30;;;24.20;74.20;;;;;;5011817;28;20423;-90
2021/07/10 06:09:53;;;;;;;19.70;17.80;;;20.90;79.20;;;;;;5016617;28;20462;-89
2021/07/10 06:12:19;;;;;;;20.10;18.30;;;21.60;84.90;;;;;;5019371;28;20431;-91
2021/07/10 06:14:45;;;;;;;19.50;17.87;;;22.50;80.50;;;;;;5036290;28;20454;-91
2021/07/10 06:17:11;;;;;;;18.80;17.10;;;21.00;83.20;;;;;;5018321;28;20204;-90
2021/07/10 06:19:37;;;;;;;18.03;16.43;;;21.50;84.90;;;;;;5010532;28;20426;-92
2021/07/10 06:22:06;;;;;;;18.80;17.10;;;21.60;76.40;;;;;;5027226;28;20181;-92
2021/07/10 06:24:35;;;;;;;19.57;17.30;;;20.50;79.20;;;;;;5010574;28;20427;-91
2021/07/10 06:27:01;;;;;;;16.97;15.37;;;19.80;77.40;;;;;;5025594;28;20430;-92
2021/07/10 06:29:27;;;;;;;19.30;17.40;;;22.90;84.70;;;;;;5011178;28;20474;-91
2021/07/10 06:31:53;;;;;;;19.33;17.20;;;21.60;84.50;;;;;;5009450;28;20428;-92
2021/07/10 06:34:21;;;;;;;19.37;17.63;;;22.00;81.20;;;;;;5012865;28;20474;-92
2021/07/10 06:36:47;;;;;;;18.63;17.13;;;22.10;81.40;;;;;;5012600;28;20169;-92
2021/07/10 06:39:16;;;;;;;18.13;16.53;;;23.70;77.70;;;;;;5011538;28;20810;-91
2021/07/10 06:41:48;;;;;;;17.20;15.80;;;21.10;70.10;;;;;;5014182;28;20840;-91
2021/07/10 06:44:14;;;;;;;18.73;16.53;;;23.20;73.10;;;;;;5013661;28;20451;-91
2021/07/10 06:46:41;;;;;;;19.30;17.33;;;21.70;82.00;;;;;;5030462;28;20463;-91
2021/07/10 06:49:07;;;;;;;17.33;15.93;;;23.10;83.10;;;;;;5011892;28;20482;-92
2021/07/10 06:51:34;;;;;;;17.83;16.30;;;22.50;84.60;;;;;;5009060;28;20795;-90
2021/07/10 06:54:00;;;;;;;19.10;17.30;;;23.60;83.80;;;;;;5005347;28;20210;-92
2021/07/10 06:56:27;;;;;;;19.50;16.20;;;21.30;75.00;;;;;;5009153;28;20459;-90
2021/07/10 06:58:53;;;;;;;15.30;13.90;;;21.60;69.90;;;;;;5008607;28;20416;-92
2021/07/10 07:01:19;;;;;;;16.47;15.00;;;23.60;81.90;;;;;;5009035;28;20972;-91
2021/07/10 07:03:44;;;;;;;15.73;14.30;;;24.70;77.90;;;;;;5012257;28;20203;-92
2021/07/10 07:06:17;;;;;;;16.33;14.97;;;22.90;70.90;;;;;;5032614;28;20411;-91
2021/07/10 07:08:43;;;;;;;15.33;14.13;;;25.20;75.30;;;;;;5018967;28;20233;-91
2021/07/10 07:11:10;;;;;;;16.80;15.30;;;25.40;77.70;;;;;;4996290;28;20440;-92
2021/07/10 07:13:38;;;;;;;17.20;14.00;;;24.60;67.20;;;;;;5010838;28;20172;-94
2021/07/10 07:16:05;;;;;;;14.80;13.60;;;23.00;65.80;;;;;;5009133;28;20431;-92
2021/07/10 07:18:30;;;;;;;15.10;13.60;;;22.40;67.80;;;;;;5021477;28;20412;-91
2021/07/10 07:20:58;;;;;;;15.37;14.03;;;23.20;66.70;;;;;;5012096;28;20450;-93
2021/07/10 07:23:24;;;;;;;16.60;15.23;;;23.20;65.70;;;;;;5026295;28;20187;-91
2021/07/10 07:25:50;;;;;;;15.53;13.70;;;21.40;65.50;;;;;;5006689;28;20416;-94
2021/07/10 07:28:15;;;;;;;14.93;13.70;;;24.80;64.00;;;;;;5021465;28;20443;-89
2021/07/10 07:30:51;;;;;;;15.07;13.87;;;22.70;61.60;;;;;;5002871;28;20504;-91
2021/07/10 07:33:37;;;;;;;16.70;15.10;;;24.20;67.90;;;;;;5005176;28;20180;-91
2021/07/10 07:36:14;;;;;;;16.80;15.30;;;24.60;59.80;;;;;;5004114;28;20448;-91
2021/07/10 07:38:40;;;;;;;15.87;14.37;;;24.00;60.10;;;;;;5003167;28;20427;-90
2021/07/10 07:41:06;;;;;;;16.73;15.13;;;24.00;61.50;;;;;;5004703;28;20416;-89
2021/07/10 07:43:32;;;;;;;15.53;14.30;;;24.00;60.20;;;;;;5009166;28;20208;-90
2021/07/10 07:46:02;;;;;;;15.77;14.37;;;24.20;58.70;;;;;;5023978;28;20427;-89
2021/07/10 07:48:30;;;;;;;14.47;13.30;;;23.60;56.90;;;;;;5006186;28;20440;-91
2021/07/10 07:51:01;;;;;;;14.37;13.17;;;25.40;57.90;;;;;;5003381;28;20475;-91
2021/07/10 07:53:27;;;;;;;15.30;13.97;;;24.40;58.80;;;;;;5005664;28;20566;-90
2021/07/10 07:55:55;;;;;;;13.33;12.37;;;24.80;53.00;;;;;;5015140;28;20438;-92
2021/07/10 07:58:21;;;;;;;12.50;11.67;;;27.40;56.70;;;;;;5013779;28;20420;-92
2021/07/10 08:00:48;;;;;;;13.00;12.00;;;26.10;54.90;;;;;;5006362;28;20423;-91
2021/07/10 08:03:25;;;;;;;12.87;12.03;;;26.40;52.90;;;;;;5007749;28;20521;-89
2021/07/10 08:05:56;;;;;;;13.23;11.97;;;26.00;52.00;;;;;;5011278;28;20447;-91
2021/07/10 08:08:22;;;;;;;13.47;12.47;;;28.90;51.70;;;;;;5004323;28;20468;-91
2021/07/10 08:10:47;;;;;;;13.00;12.10;;;26.20;50.60;;;;;;5001225;28;20479;-91
2021/07/10 08:13:16;;;;;;;14.20;13.13;;;25.80;49.30;;;;;;5005851;28;20248;-91
2021/07/10 08:15:45;;;;;;;13.10;11.90;;;26.10;49.30;;;;;;5002557;28;20636;-91
2021/07/10 08:18:10;;;;;;;12.80;11.77;;;26.10;48.70;;;;;;5001845;28;20463;-92
2021/07/10 08:20:37;;;;;;;12.63;11.63;;;26.20;49.00;;;;;;5002576;28;20419;-89
2021/07/10 08:23:06;;;;;;;12.47;11.57;;;26.00;49.30;;;;;;5000510;28;20540;-91
2021/07/10 08:25:36;;;;;;;11.17;10.27;;;27.30;50.50;;;;;;5018852;28;20447;-91
2021/07/10 08:28:03;;;;;;;12.20;11.20;;;26.10;48.20;;;;;;5020150;28;20412;-87
2021/07/10 08:30:28;;;;;;;11.70;10.70;;;26.90;51.70;;;;;;5002802;28;20549;-90
2021/07/10 08:32:57;;;;;;;11.47;10.77;;;27.60;47.50;;;;;;5005212;28;20679;-92
2021/07/10 08:35:24;;;;;;;12.77;11.47;;;26.50;46.50;;;;;;5003296;28;20248;-91
2021/07/10 08:37:53;;;;;;;10.97;9.90;;;26.60;48.00;;;;;;5018438;28;20464;-91
2021/07/10 08:40:20;;;;;;;10.73;10.03;;;26.90;46.50;;;;;;5003399;28;20412;-92
2021/07/10 08:42:46;;;;;;;9.73;9.13;;;27.60;51.00;;;;;;5004177;28;20430;-90
2021/07/10 08:45:15;;;;;;;10.17;9.13;;;28.30;54.30;;;;;;5001105;28;20407;-89
2021/07/10 08:47:45;;;;;;;9.13;8.63;;;29.10;52.60;;;;;;5021513;28;20216;-91
2021/07/10 08:50:21;;;;;;;7.87;7.40;;;28.90;51.50;;;;;;5000192;28;20471;-92
2021/07/10 08:52:48;;;;;;;8.97;8.53;;;29.80;52.90;;;;;;5027056;28;21126;-91
2021/07/10 08:55:14;;;;;;;9.13;8.30;;;29.90;40.60;;;;;;5025217;28;20919;-92
2021/07/10 08:57:42;;;;;;;8.37;7.77;;;30.40;41.40;;;;;;5002587;28;20442;-91
2021/07/10 09:00:14;;;;;;;8.93;8.33;;;29.30;39.70;;;;;;5017683;28;20899;-91
2021/07/10 09:02:46;;;;;;;8.13;7.43;;;30.90;39.80;;;;;;5019059;28;20416;-92
2021/07/10 09:05:17;;;;;;;6.87;6.60;;;32.00;39.80;;;;;;4999259;28;20934;-91
2021/07/10 09:08:19;;;;;;;7.77;7.43;;;31.30;39.40;;;;;;5016812;28;20403;-90
2021/07/10 09:10:50;;;;;;;7.73;6.97;;;30.90;38.70;;;;;;4996967;28;20470;-92
2021/07/10 09:13:17;;;;;;;7.30;6.90;;;31.80;40.30;;;;;;4995467;28;20491;-89
2021/07/10 09:15:46;;;;;;;8.33;7.80;;;30.70;41.00;;;;;;5002097;28;20784;-89
2021/07/10 09:18:14;;;;;;;8.50;8.00;;;29.80;39.60;;;;;;4986060;28;20420;-92
2021/07/10 09:20:42;;;;;;;8.57;7.87;;;30.30;40.70;;;;;;5004010;28;20489;-92
2021/07/10 09:23:56;;;;;;;;;;;;;;;;;;;;;
2021/07/10 09:26:26;;;;;;;7.47;7.13;;;29.20;41.10;;;;;;4594339;29;10000572;-93
2021/07/10 09:29:10;;;;;;;8.60;7.87;;;;;;;;;;4974004;28;20212;-93
2021/07/10 09:31:42;;;;;;;7.20;6.70;;;28.30;41.20;;;;;;4978624;28;20451;-91
2021/07/10 09:34:15;;;;;;;8.40;7.90;;;29.50;42.30;;;;;;4979561;28;20452;-92
2021/07/10 09:36:54;;;;;;;7.93;7.30;;;28.90;42.40;;;;;;4979193;28;20428;-92
2021/07/10 09:39:27;;;;;;;8.17;7.67;;;29.60;43.20;;;;;;4981288;28;20523;-92
2021/07/10 09:41:53;;;;;;;8.10;7.03;;;29.50;42.70;;;;;;5000121;28;20416;-92
2021/07/10 09:44:19;;;;;;;8.57;7.67;;;29.40;42.20;;;;;;4994902;28;20421;-92
2021/07/10 09:46:45;;;;;;;9.90;8.97;;;30.00;45.20;;;;;;4994075;28;20452;-91
2021/07/10 09:49:21;;;;;;;9.27;8.53;;;28.80;43.60;;;;;;4995403;28;20209;-91
2021/07/10 09:51:47;;;;;;;10.03;9.30;;;28.80;43.70;;;;;;4977921;28;20264;-92
2021/07/10 09:54:15;;;;;;;9.33;8.83;;;30.10;43.50;;;;;;4998611;28;20983;-91
2021/07/10 09:57:13;;;;;;;8.03;7.63;;;29.20;45.50;;;;;;4999186;28;20905;-94
2021/07/10 10:00:12;;;;;;;8.67;8.10;;;29.00;41.50;;;;;;5018247;28;20447;-91
2021/07/10 10:02:49;;;;;;;8.97;8.17;;;29.20;42.10;;;;;;5018434;28;20403;-91
2021/07/10 10:05:21;;;;;;;8.70;8.27;;;29.30;43.10;;;;;;5017153;28;20423;-91
2021/07/10 10:08:02;;;;;;;11.77;11.07;;;27.60;43.90;;;;;;4978279;28;20791;-91
2021/07/10 10:10:54;;;;;;;8.47;7.80;;;27.70;44.50;;;;;;4995428;28;20467;-89
2021/07/10 10:13:20;;;;;;;9.10;8.50;;;28.00;43.90;;;;;;4980391;28;20872;-93
2021/07/10 10:15:51;;;;;;;9.90;8.93;;;27.80;44.50;;;;;;4997893;28;20420;-91
2021/07/10 10:18:26;;;;;;;9.17;8.67;;;27.50;46.40;;;;;;5011466;28;20175;-91
2021/07/10 10:20:55;;;;;;;8.13;7.83;;;27.30;45.30;;;;;;5021324;28;20411;-90
2021/07/10 10:23:22;;;;;;;9.20;8.53;;;27.60;45.40;;;;;;5006563;28;20466;-93
2021/07/10 10:25:49;;;;;;;9.13;8.27;;;27.80;45.40;;;;;;5020879;28;20987;-91
2021/07/10 10:28:19;;;;;;;9.73;9.13;;;28.00;44.90;;;;;;5023167;28;20404;-89
2021/07/10 10:30:56;;;;;;;9.30;8.70;;;27.90;44.90;;;;;;5004076;28;20538;-93
2021/07/10 10:33:23;;;;;;;9.37;8.83;;;30.20;46.90;;;;;;5006789;28;20506;-91
2021/07/10 10:35:55;;;;;;;10.87;10.17;;;27.60;45.00;;;;;;5023236;28;20434;-93
2021/07/10 10:38:23;;;;;;;10.63;9.73;;;27.60;45.30;;;;;;5005505;28;20426;-93
2021/07/10 10:40:51;;;;;;;8.70;8.10;;;27.70;44.60;;;;;;5006369;28;20408;-89
2021/07/10 10:43:19;;;;;;;14.50;13.10;;;29.20;45.70;;;;;;4677426;28;10000044;-90
2021/07/10 10:45:46;;;;;;;9.97;9.37;;;27.80;44.60;;;;;;5009894;28;20169;-91
2021/07/10 10:48:38;;;;;;;10.77;9.70;;;27.20;45.80;;;;;;5024133;28;20467;-92
2021/07/10 10:51:47;;;;;;;9.30;8.67;;;27.10;43.50;;;;;;5000402;28;20471;-91
2021/07/10 10:54:17;;;;;;;10.40;9.50;;;27.00;44.20;;;;;;5027795;28;20419;-94
2021/07/10 10:56:46;;;;;;;11.53;10.43;;;26.90;43.90;;;;;;5023672;28;20427;-92
2021/07/10 10:59:35;;;;;;;9.43;8.90;;;26.60;45.10;;;;;;5006413;28;20744;-92
2021/07/10 11:02:01;;;;;;;9.53;8.53;;;26.30;44.60;;;;;;5024880;28;20408;-91
2021/07/10 11:04:55;;;;;;;10.13;9.40;;;26.60;46.10;;;;;;5006453;28;20411;-92
2021/07/10 11:07:25;;;;;;;10.17;9.47;;;28.10;45.70;;;;;;5005901;28;20423;-90
2021/07/10 11:10:02;;;;;;;11.87;10.40;;;25.50;45.20;;;;;;5019371;28;20974;-91
2021/07/10 11:12:52;;;;;;;11.80;10.90;;;29.00;50.00;;;;;;5003310;28;20423;-93
2021/07/10 11:15:32;;;;;;;12.40;11.53;;;28.30;47.20;;;;;;5004858;28;20435;-92
2021/07/10 11:18:08;;;;;;;11.00;10.37;;;30.30;47.00;;;;;;5026945;28;20840;-91
2021/07/10 11:20:50;;;;;;;11.33;10.43;;;27.70;43.80;;;;;;5009080;28;20422;-91
2021/07/10 11:23:34;;;;;;;10.13;9.53;;;30.20;44.50;;;;;;4992682;28;20805;-93
2021/07/10 11:26:15;;;;;;;10.63;10.03;;;29.10;42.10;;;;;;5007538;28;20446;-92
2021/07/10 11:28:49;;;;;;;10.00;9.50;;;30.20;42.50;;;;;;5025067;28;20469;-91
2021/07/10 11:31:24;;;;;;;9.87;9.43;;;30.90;40.50;;;;;;5027505;28;20454;-92
2021/07/10 11:34:05;;;;;;;9.90;9.30;;;31.00;39.80;;;;;;5009159;28;20415;-94
2021/07/10 11:36:46;;;;;;;10.93;10.27;;;29.60;40.10;;;;;;5016572;28;20419;-93
2021/07/10 11:39:24;;;;;;;10.60;9.80;;;29.40;47.70;;;;;;5034995;28;20419;-91
2021/07/10 11:41:59;;;;;;;9.87;9.27;;;29.20;45.30;;;;;;5012602;28;20446;-92
2021/07/10 11:44:29;;;;;;;10.13;9.60;;;30.00;45.80;;;;;;5008362;28;20422;-93
2021/07/10 11:47:00;;;;;;;10.70;10.00;;;31.50;47.40;;;;;;5006806;28;20496;-92
2021/07/10 11:49:35;;;;;;;10.00;9.47;;;29.20;45.60;;;;;;5008281;28;20961;-95
2021/07/10 11:52:13;;;;;;;8.90;8.33;;;29.60;45.90;;;;;;5008161;28;20463;-91
2021/07/10 11:54:44;;;;;;;8.00;7.50;;;30.10;39.10;;;;;;5007124;28;20415;-92
2021/07/10 11:57:14;;;;;;;8.90;8.40;;;31.50;37.40;;;;;;5006645;28;20431;-92
2021/07/10 11:59:42;;;;;;;8.47;7.87;;;33.20;40.00;;;;;;5004611;28;20438;-92
2021/07/10 12:02:21;;;;;;;8.27;7.97;;;33.30;36.10;;;;;;5003496;28;20431;-92
2021/07/10 12:05:09;;;;;;;8.37;7.93;;;33.80;37.50;;;;;;5004115;28;20446;-93
2021/07/10 12:07:37;;;;;;;7.40;7.13;;;34.20;35.40;;;;;;5023848;28;20410;-94
2021/07/10 12:10:08;;;;;;;8.30;7.80;;;34.20;35.50;;;;;;5036875;28;20470;-93
2021/07/10 12:12:53;;;;;;;7.10;6.90;;;34.10;35.20;;;;;;5033259;28;20432;-91
2021/07/10 12:15:28;;;;;;;7.37;6.97;;;33.10;33.90;;;;;;5010380;28;20432;-91
2021/07/10 12:17:58;;;;;;;6.90;6.50;;;34.70;35.80;;;;;;5007369;28;20470;-91
2021/07/10 12:20:33;;;;;;;6.30;5.80;;;34.60;36.20;;;;;;5024300;28;20477;-92
2021/07/10 12:23:04;;;;;;;4.80;4.60;;;34.10;34.60;;;;;;5007441;28;20806;-92
2021/07/10 12:25:44;;;;;;;4.87;4.77;;;34.50;32.50;;;;;;5025966;28;20415;-92
2021/07/10 12:28:16;;;;;;;6.23;5.83;;;35.30;32.50;;;;;;5007064;28;20427;-92
2021/07/10 12:30:48;;;;;;;5.73;5.53;;;36.20;33.80;;;;;;5005720;28;20486;-92
2021/07/10 12:33:37;;;;;;;5.37;5.17;;;36.80;33.40;;;;;;5003610;28;20419;-92
2021/07/10 12:36:02;;;;;;;6.40;6.10;;;34.30;32.70;;;;;;4999847;28;20428;-92
2021/07/10 12:38:34;;;;;;;6.67;6.47;;;33.00;34.10;;;;;;5001817;28;20958;-91
2021/07/10 12:41:22;;;;;;;6.50;6.30;;;32.60;34.20;;;;;;5000215;28;20177;-93
2021/07/10 12:43:49;;;;;;;6.10;5.87;;;32.50;33.80;;;;;;5002386;28;20426;-93
2021/07/10 12:46:14;;;;;;;6.30;6.00;;;32.70;35.00;;;;;;5017937;28;20457;-93
2021/07/10 12:48:40;;;;;;;5.73;5.63;;;32.00;35.70;;;;;;5018397;28;20463;-92
2021/07/10 12:51:06;;;;;;;6.40;6.10;;;32.00;36.20;;;;;;5016150;28;20216;-92
2021/07/10 12:53:35;;;;;;;5.73;5.63;;;33.00;36.60;;;;;;4998684;28;20717;-94
2021/07/10 12:56:25;;;;;;;6.80;6.60;;;31.30;36.60;;;;;;4999050;28;20172;-94
2021/07/10 12:58:53;;;;;;;5.73;5.43;;;31.90;36.90;;;;;;5002246;28;20420;-91
2021/07/10 13:02:13;;;;;;;6.57;6.37;;;30.30;36.30;;;;;;5001981;28;20423;-92
2021/07/10 13:04:09;;;;;;;6.23;5.93;;;33.30;37.40;;;;;;5013158;28;20426;-90